createdAt,value
2022-10-02T00:01:29.137Z,1.50
2022-10-02T00:03:59.346Z,1.70
2022-10-02T00:06:34.902Z,1.37
2022-10-02T00:09:05.211Z,1.40
2022-10-02T00:11:43.539Z,1.83
2022-10-02T00:14:16.587Z,2.30
2022-10-02T00:16:47.704Z,2.07
2022-10-02T00:19:18.735Z,1.93
2022-10-02T00:21:58.060Z,2.00
2022-10-02T00:24:28.377Z,1.50
2022-10-02T00:27:01.991Z,2.20
2022-10-02T00:29:40.849Z,1.70
2022-10-02T00:32:19.865Z,1.70
2022-10-02T00:35:02.045Z,1.33
2022-10-02T00:37:37.483Z,1.80
2022-10-02T00:40:30.710Z,1.40
2022-10-02T00:43:07.984Z,1.70
2022-10-02T00:45:47.750Z,1.40
2022-10-02T00:48:30.456Z,1.40
2022-10-02T00:51:09.370Z,1.47
2022-10-02T00:53:46.465Z,2.10
2022-10-02T00:56:23.578Z,1.60
2022-10-02T00:59:07.478Z,1.63
2022-10-02T01:01:43.502Z,1.73
2022-10-02T01:04:15.734Z,1.60
2022-10-02T01:06:43.536Z,2.00
2022-10-02T01:09:12.535Z,1.40
2022-10-02T01:11:40.898Z,2.03
2022-10-02T01:14:08.972Z,1.80
2022-10-02T01:16:41.888Z,1.60
2022-10-02T01:19:24.697Z,1.90
2022-10-02T01:21:57.991Z,1.73
2022-10-02T01:24:31.186Z,1.83
2022-10-02T01:27:00.322Z,1.70
2022-10-02T01:29:28.119Z,1.70
2022-10-02T01:31:56.949Z,1.67
2022-10-02T01:34:25.189Z,1.40
2022-10-02T01:36:53.446Z,2.30
2022-10-02T01:39:21.275Z,2.10
2022-10-02T01:41:49.094Z,2.50
2022-10-02T01:44:18.187Z,1.60
2022-10-02T01:46:55.241Z,1.97
2022-10-02T01:49:44.773Z,1.57
2022-10-02T01:52:33.060Z,1.70
2022-10-02T01:55:21.055Z,2.67
2022-10-02T01:58:00.608Z,1.73
2022-10-02T02:00:39.542Z,1.70
2022-10-02T02:03:16.740Z,2.73
2022-10-02T02:05:50.713Z,2.00
2022-10-02T02:08:29.768Z,1.53
2022-10-02T02:11:10.214Z,2.33
2022-10-02T02:13:45.739Z,1.73
2022-10-02T02:16:22.798Z,1.93
2022-10-02T02:18:55.187Z,2.30
2022-10-02T02:21:25.831Z,1.97
2022-10-02T02:23:55.990Z,2.20
2022-10-02T02:26:26.486Z,2.40
2022-10-02T02:28:58.059Z,2.80
2022-10-02T02:31:30.681Z,2.60
2022-10-02T02:34:01.499Z,2.57
2022-10-02T02:36:37.099Z,2.17
2022-10-02T02:39:08.840Z,2.77
2022-10-02T02:41:42.816Z,2.90
2022-10-02T02:44:15.907Z,2.77
2022-10-02T02:47:06.775Z,2.67
2022-10-02T02:49:40.558Z,3.13
2022-10-02T02:52:14.931Z,2.80
2022-10-02T02:54:46.347Z,3.33
2022-10-02T02:57:16.206Z,3.23
2022-10-02T02:59:47.356Z,3.33
2022-10-02T03:02:16.465Z,3.70
2022-10-02T03:04:44.193Z,4.17
2022-10-02T03:07:17.299Z,3.73
2022-10-02T03:09:58.047Z,4.90
2022-10-02T03:12:36.906Z,5.50
2022-10-02T03:15:26.547Z,5.87
2022-10-02T03:18:25.846Z,4.90
2022-10-02T03:21:04.309Z,5.47
2022-10-02T03:23:41.529Z,5.70
2022-10-02T03:26:15.691Z,5.93
2022-10-02T03:28:56.109Z,6.27
2022-10-02T03:31:27.758Z,5.87
2022-10-02T03:34:00.119Z,6.73
2022-10-02T03:36:28.287Z,6.37
2022-10-02T03:39:20.269Z,7.13
2022-10-02T03:41:46.591Z,7.70
2022-10-02T03:44:14.294Z,7.93
2022-10-02T03:46:42.019Z,8.80
2022-10-02T03:49:11.113Z,8.00
2022-10-02T03:51:38.848Z,8.70
2022-10-02T03:54:16.542Z,9.00
2022-10-02T03:56:51.013Z,8.63
2022-10-02T03:59:29.472Z,9.20
2022-10-02T04:02:01.244Z,9.40
2022-10-02T04:04:36.328Z,9.37
2022-10-02T04:07:05.767Z,9.77
2022-10-02T04:09:39.470Z,9.00
2022-10-02T04:12:12.390Z,9.37
2022-10-02T04:14:46.175Z,9.83
2022-10-02T04:17:19.924Z,10.40
2022-10-02T04:19:53.978Z,9.63
2022-10-02T04:22:32.501Z,9.57
2022-10-02T04:25:04.323Z,9.77
2022-10-02T04:27:37.781Z,9.37
2022-10-02T04:30:10.746Z,9.70
2022-10-02T04:32:39.057Z,10.17
2022-10-02T04:35:16.901Z,10.33
2022-10-02T04:38:07.604Z,10.30
2022-10-02T04:40:51.224Z,9.63
2022-10-02T04:43:31.790Z,10.13
2022-10-02T04:46:09.986Z,9.87
2022-10-02T04:48:56.314Z,9.77
2022-10-02T04:51:43.478Z,10.30
2022-10-02T04:54:35.832Z,10.50
2022-10-02T04:57:20.176Z,11.17
2022-10-02T05:00:03.037Z,10.57
2022-10-02T05:02:40.033Z,10.63
2022-10-02T05:05:18.470Z,11.43
2022-10-02T05:07:56.374Z,11.43
2022-10-02T05:10:45.831Z,12.07
2022-10-02T05:13:26.511Z,12.03
2022-10-02T05:16:09.904Z,10.73
2022-10-02T05:18:56.731Z,12.03
2022-10-02T05:21:48.241Z,11.40
2022-10-02T05:24:32.740Z,11.60
2022-10-02T05:27:29.852Z,13.70
2022-10-02T05:30:09.685Z,13.67
2022-10-02T05:33:18.798Z,12.13
2022-10-02T05:36:05.910Z,11.97
2022-10-02T05:38:51.672Z,11.70
2022-10-02T05:41:27.654Z,11.33
2022-10-02T05:44:02.600Z,11.30
2022-10-02T05:46:35.554Z,11.13
2022-10-02T05:49:07.601Z,12.37
2022-10-02T05:51:50.388Z,12.67
2022-10-02T05:54:28.577Z,12.97
2022-10-02T05:57:02.705Z,14.30
2022-10-02T05:59:37.503Z,13.87
2022-10-02T06:02:15.502Z,14.67
2022-10-02T06:04:48.863Z,14.73
2022-10-02T06:07:19.176Z,14.63
2022-10-02T06:09:50.854Z,14.47
2022-10-02T06:12:26.729Z,15.57
2022-10-02T06:15:01.036Z,15.23
2022-10-02T06:17:32.111Z,13.70
2022-10-02T06:20:06.610Z,15.27
2022-10-02T06:22:41.009Z,14.77
2022-10-02T06:25:15.066Z,14.77
2022-10-02T06:27:48.711Z,15.00
2022-10-02T06:30:18.790Z,14.07
2022-10-02T06:32:53.009Z,14.70
2022-10-02T06:35:35.510Z,14.50
2022-10-02T06:38:16.256Z,15.00
2022-10-02T06:40:51.477Z,13.17
2022-10-02T06:43:36.283Z,14.03
2022-10-02T06:46:17.783Z,12.93
2022-10-02T06:48:52.963Z,12.93
2022-10-02T06:51:28.072Z,13.77
2022-10-02T06:54:19.079Z,12.37
2022-10-02T06:57:04.418Z,11.67
2022-10-02T06:59:49.356Z,10.90
2022-10-02T07:02:33.889Z,10.03
2022-10-02T07:05:20.745Z,9.63
2022-10-02T07:07:57.808Z,8.57
2022-10-02T07:10:35.671Z,8.10
2022-10-02T07:13:30.188Z,7.43
2022-10-02T07:16:21.059Z,7.20
2022-10-02T07:19:21.524Z,7.03
2022-10-02T07:21:59.475Z,6.80
2022-10-02T07:24:46.398Z,6.07
2022-10-02T07:27:21.740Z,5.83
2022-10-02T07:30:00.244Z,6.47
2022-10-02T07:32:42.972Z,5.50
2022-10-02T07:35:42.724Z,7.00
2022-10-02T07:38:44.139Z,6.17
2022-10-02T07:41:20.596Z,5.73
2022-10-02T07:43:53.154Z,7.23
2022-10-02T07:46:31.692Z,5.90
2022-10-02T07:49:17.728Z,5.73
2022-10-02T07:51:50.942Z,6.30
2022-10-02T07:54:43.756Z,5.83
2022-10-02T07:57:28.525Z,6.23
2022-10-02T08:00:01.660Z,5.70
2022-10-02T08:02:35.561Z,5.33
2022-10-02T08:05:10.035Z,5.70
2022-10-02T08:07:37.796Z,4.93
2022-10-02T08:10:11.141Z,5.70
2022-10-02T08:12:42.247Z,5.30
2022-10-02T08:15:16.657Z,5.00
2022-10-02T08:17:49.836Z,5.40
2022-10-02T08:20:29.503Z,4.30
2022-10-02T08:23:04.385Z,4.80
2022-10-02T08:25:39.552Z,4.30
2022-10-02T08:28:12.667Z,4.43
2022-10-02T08:30:40.371Z,4.13
2022-10-02T08:33:15.158Z,4.10
2022-10-02T08:35:57.821Z,3.53
2022-10-02T08:38:37.223Z,3.63
2022-10-02T08:41:50.381Z,3.87
2022-10-02T08:44:55.503Z,4.60
2022-10-02T08:47:53.842Z,4.07
2022-10-02T08:50:37.490Z,3.90
2022-10-02T08:53:41.713Z,3.50
2022-10-02T08:56:22.539Z,3.97
2022-10-02T08:59:19.118Z,4.27
2022-10-02T09:02:19.668Z,3.57
2022-10-02T09:05:19.767Z,3.00
2022-10-02T09:08:17.033Z,3.30
2022-10-02T09:11:37.117Z,3.93
2022-10-02T09:17:16.041Z,4.60
2022-10-02T09:19:57.461Z,3.03
2022-10-02T09:22:55.172Z,3.00
2022-10-02T09:25:31.728Z,2.90
2022-10-02T09:28:33.033Z,3.00
2022-10-02T09:31:31.705Z,2.90
2022-10-02T09:34:37.736Z,2.80
2022-10-02T09:37:44.168Z,2.67
2022-10-02T09:40:36.626Z,3.73
2022-10-02T09:43:57.318Z,2.90
2022-10-02T09:46:59.009Z,2.87
2022-10-02T09:50:10.799Z,2.70
2022-10-02T09:53:19.495Z,2.63
2022-10-02T09:56:12.501Z,2.90
2022-10-02T09:59:17.513Z,2.50
2022-10-02T10:02:25.463Z,2.33
2022-10-02T10:05:20.167Z,2.43
2022-10-02T10:08:31.681Z,3.00
2022-10-02T10:11:32.278Z,3.17
2022-10-02T10:14:19.681Z,2.47
2022-10-02T10:17:14.108Z,2.37
2022-10-02T10:20:05.586Z,2.10
2022-10-02T10:22:49.840Z,2.90
2022-10-02T10:25:48.360Z,2.63
2022-10-02T10:29:03.896Z,1.93
2022-10-02T10:31:59.206Z,3.00
2022-10-02T10:34:57.761Z,2.03
2022-10-02T10:38:13.955Z,1.70
2022-10-02T10:40:59.408Z,2.50
2022-10-02T10:43:52.966Z,2.23
2022-10-02T10:46:35.341Z,1.90
2022-10-02T10:49:17.109Z,2.27
2022-10-02T10:51:54.613Z,2.03
2022-10-02T10:54:49.559Z,1.70
2022-10-02T10:57:37.342Z,2.47
2022-10-02T11:00:21.423Z,2.00
2022-10-02T11:03:31.031Z,2.10
2022-10-02T11:06:27.859Z,2.00
2022-10-02T11:09:18.099Z,2.43
2022-10-02T11:12:01.418Z,1.93
2022-10-02T11:14:39.773Z,2.13
2022-10-02T11:17:21.983Z,1.67
2022-10-02T11:20:02.366Z,2.77
2022-10-02T11:22:56.837Z,2.87
2022-10-02T11:26:02.646Z,2.70
2022-10-02T11:29:18.031Z,2.50
2022-10-02T11:32:28.027Z,2.53
2022-10-02T11:35:14.037Z,2.27
2022-10-02T11:37:58.691Z,2.43
2022-10-02T11:40:40.324Z,2.50
2022-10-02T11:43:43.812Z,2.37
2022-10-02T11:46:28.113Z,2.00
2022-10-02T11:49:26.848Z,1.90
2022-10-02T11:52:18.680Z,2.30
2022-10-02T11:55:04.084Z,1.40
2022-10-02T11:57:40.726Z,2.30
2022-10-02T12:00:48.155Z,2.00
2022-10-02T12:03:23.057Z,2.10
2022-10-02T12:06:00.210Z,2.00
2022-10-02T12:08:47.406Z,1.90
2022-10-02T12:11:21.375Z,2.47
2022-10-02T12:14:01.158Z,2.47
2022-10-02T12:16:42.738Z,1.40
2022-10-02T12:19:26.991Z,1.47
2022-10-02T12:22:26.536Z,1.97
2022-10-02T12:25:19.566Z,2.13
2022-10-02T12:27:55.746Z,2.00
2022-10-02T12:30:26.413Z,1.50
2022-10-02T12:33:10.979Z,1.90
2022-10-02T12:35:56.798Z,1.70
2022-10-02T12:38:37.397Z,1.70
2022-10-02T12:41:17.814Z,1.60
2022-10-02T12:44:06.384Z,1.67
2022-10-02T12:47:06.150Z,2.20
2022-10-02T12:49:51.727Z,2.17
2022-10-02T12:53:04.328Z,2.23
2022-10-02T12:56:04.943Z,1.80
2022-10-02T12:58:46.234Z,1.93
2022-10-02T13:01:45.177Z,1.57
2022-10-02T13:04:57.405Z,1.60
2022-10-02T13:07:59.700Z,1.93
2022-10-02T13:10:31.850Z,2.40
2022-10-02T13:13:13.741Z,2.00
2022-10-02T13:15:53.784Z,1.80
2022-10-02T13:18:43.732Z,1.93
2022-10-02T13:21:18.781Z,1.47
2022-10-02T13:23:57.960Z,2.20
2022-10-02T13:26:38.165Z,2.23
2022-10-02T13:29:24.237Z,1.73
2022-10-02T13:32:15.688Z,2.63
2022-10-02T13:35:03.297Z,2.07
2022-10-02T13:37:43.368Z,2.13
2022-10-02T13:40:24.821Z,1.93
2022-10-02T13:43:19.927Z,1.80
2022-10-02T13:45:57.173Z,2.13
2022-10-02T13:48:35.291Z,2.30
2022-10-02T13:51:08.100Z,1.67
2022-10-02T13:54:21.919Z,2.00
2022-10-02T13:56:58.113Z,2.17
2022-10-02T13:59:41.458Z,2.37
2022-10-02T14:02:22.010Z,1.93
2022-10-02T14:04:56.976Z,2.27
2022-10-02T14:07:48.918Z,1.77
2022-10-02T14:10:30.919Z,1.90
2022-10-02T14:13:10.917Z,1.50
2022-10-02T14:15:51.424Z,2.03
2022-10-02T14:18:33.717Z,1.50
2022-10-02T14:21:10.017Z,1.77
2022-10-02T14:23:58.516Z,1.73
2022-10-02T14:26:42.137Z,1.47
2022-10-02T14:29:44.361Z,1.37
2022-10-02T14:35:34.824Z,1.90
2022-10-02T14:38:26.989Z,1.77
2022-10-02T14:40:56.017Z,1.80
2022-10-02T14:44:02.721Z,1.33
2022-10-02T14:46:44.342Z,1.57
2022-10-02T14:49:36.642Z,1.50
2022-10-02T14:52:27.515Z,1.70
2022-10-02T14:55:16.877Z,1.80
2022-10-02T14:58:01.484Z,1.40
2022-10-02T15:00:41.421Z,1.50
2022-10-02T15:03:26.287Z,1.40
2022-10-02T15:06:27.039Z,1.50
2022-10-02T15:08:59.714Z,1.37
2022-10-02T15:11:48.739Z,0.90
2022-10-02T15:14:20.775Z,1.20
2022-10-02T15:17:12.493Z,1.77
2022-10-02T15:19:49.759Z,1.30
2022-10-02T15:22:22.461Z,1.60
2022-10-02T15:24:57.227Z,1.90
2022-10-02T15:27:26.845Z,1.50
2022-10-02T15:30:13.050Z,1.43
2022-10-02T15:33:00.439Z,1.97
2022-10-02T15:35:40.936Z,2.00
2022-10-02T15:38:23.755Z,1.93
2022-10-02T15:41:19.096Z,1.37
2022-10-02T15:44:00.945Z,1.23
2022-10-02T15:46:37.456Z,1.33
2022-10-02T15:49:13.398Z,1.73
2022-10-02T15:52:00.850Z,1.73
2022-10-02T15:54:53.555Z,2.47
2022-10-02T15:57:58.410Z,4.03
2022-10-02T16:00:27.337Z,4.67
2022-10-02T16:03:13.498Z,3.70
2022-10-02T16:05:51.221Z,2.33
2022-10-02T16:08:41.413Z,2.57
2022-10-02T16:11:29.418Z,3.10
2022-10-02T16:14:07.530Z,4.13
2022-10-02T16:17:12.098Z,3.00
2022-10-02T16:20:03.887Z,2.70
2022-10-02T16:22:44.765Z,3.23
2022-10-02T16:25:26.348Z,3.90
2022-10-02T16:28:01.696Z,2.23
2022-10-02T16:30:39.313Z,2.30
2022-10-02T16:33:20.127Z,3.73
2022-10-02T16:35:59.550Z,2.43
2022-10-02T16:38:39.250Z,2.90
2022-10-02T16:44:30.897Z,2.00
2022-10-02T16:47:07.944Z,2.50
2022-10-02T16:49:50.925Z,2.40
2022-10-02T16:52:24.730Z,1.93
2022-10-02T16:54:59.189Z,1.70
2022-10-02T16:57:34.388Z,2.23
2022-10-02T17:00:07.684Z,2.53
2022-10-02T17:02:45.964Z,2.67
2022-10-02T17:05:24.597Z,2.70
2022-10-02T17:07:59.514Z,3.00
2022-10-02T17:10:38.693Z,3.00
2022-10-02T17:13:26.294Z,2.70
2022-10-02T17:15:59.752Z,2.60
2022-10-02T17:18:35.426Z,3.00
2022-10-02T17:21:13.752Z,3.27
2022-10-02T17:23:50.986Z,2.73
2022-10-02T17:26:29.491Z,3.37
2022-10-02T17:29:02.864Z,3.27
2022-10-02T17:31:41.838Z,3.30
2022-10-02T17:34:23.042Z,2.70
2022-10-02T17:37:02.253Z,2.60
2022-10-02T17:39:53.544Z,2.57
2022-10-02T17:42:32.633Z,2.70
2022-10-02T17:45:15.753Z,3.00
2022-10-02T17:48:19.048Z,2.90
2022-10-02T17:51:38.704Z,2.93
2022-10-02T17:54:46.584Z,3.33
2022-10-02T18:00:21.232Z,3.33
2022-10-02T18:03:12.953Z,3.17
2022-10-02T18:05:54.388Z,3.23
2022-10-02T18:08:49.261Z,2.87
2022-10-02T18:11:30.423Z,3.73
2022-10-02T18:14:11.391Z,3.67
2022-10-02T18:16:53.224Z,3.20
2022-10-02T18:19:29.096Z,3.43
2022-10-02T18:22:14.885Z,3.43
2022-10-02T18:25:19.050Z,3.37
2022-10-02T18:28:12.320Z,3.30
2022-10-02T18:30:50.059Z,3.40
2022-10-02T18:33:51.717Z,5.17
2022-10-02T18:36:31.023Z,5.17
2022-10-02T18:39:02.349Z,4.00
2022-10-02T18:41:50.499Z,4.37
2022-10-02T18:44:35.104Z,3.40
2022-10-02T18:47:10.286Z,3.73
2022-10-02T18:49:57.024Z,3.20
2022-10-02T18:52:57.037Z,3.37
2022-10-02T18:55:43.576Z,3.33
2022-10-02T18:58:25.074Z,4.23
2022-10-02T19:01:04.698Z,3.00
2022-10-02T19:03:44.824Z,4.30
2022-10-02T19:06:16.975Z,3.73
2022-10-02T19:09:19.101Z,4.07
2022-10-02T19:11:49.962Z,2.67
2022-10-02T19:14:34.324Z,2.70
2022-10-02T19:17:04.533Z,3.20
2022-10-02T19:19:33.525Z,3.33
2022-10-02T19:22:09.305Z,3.50
2022-10-02T19:24:40.570Z,3.57
2022-10-02T19:27:15.081Z,3.60
2022-10-02T19:29:48.634Z,2.53
2022-10-02T19:32:21.187Z,3.17
2022-10-02T19:34:56.283Z,2.90
2022-10-02T19:37:24.188Z,3.07
2022-10-02T19:39:54.628Z,3.00
2022-10-02T19:42:26.233Z,3.10
2022-10-02T19:44:59.409Z,2.93
2022-10-02T19:47:32.441Z,2.90
2022-10-02T19:50:02.333Z,3.40
2022-10-02T19:52:41.404Z,3.27
2022-10-02T19:55:22.110Z,3.13
2022-10-02T19:57:53.998Z,2.53
2022-10-02T20:00:23.378Z,2.90
2022-10-02T20:02:55.632Z,3.47
2022-10-02T20:05:25.274Z,2.87
2022-10-02T20:07:56.832Z,3.43
2022-10-02T20:10:31.229Z,3.40
2022-10-02T20:13:05.941Z,3.03
2022-10-02T20:15:59.717Z,3.23
2022-10-02T20:18:27.641Z,2.30
2022-10-02T20:21:05.554Z,2.70
2022-10-02T20:23:35.661Z,2.50
2022-10-02T20:26:08.935Z,3.00
2022-10-02T20:28:45.341Z,2.77
2022-10-02T20:31:18.666Z,2.77
2022-10-02T20:33:50.119Z,2.90
2022-10-02T20:36:21.789Z,2.80
2022-10-02T20:38:52.148Z,2.63
2022-10-02T20:41:24.073Z,2.70
2022-10-02T20:43:55.100Z,3.63
2022-10-02T20:46:54.688Z,2.80
2022-10-02T20:49:59.447Z,2.30
2022-10-02T20:52:53.227Z,2.93
2022-10-02T20:55:27.413Z,3.33
2022-10-02T20:58:17.528Z,2.80
2022-10-02T21:00:58.605Z,2.40
2022-10-02T21:03:53.515Z,2.47
2022-10-02T21:07:05.787Z,2.60
2022-10-02T21:09:56.923Z,2.73
2022-10-02T21:12:55.969Z,2.10
2022-10-02T21:15:46.150Z,2.63
2022-10-02T21:18:45.038Z,2.97
2022-10-02T21:21:53.714Z,2.60
2022-10-02T21:25:03.303Z,2.03
2022-10-02T21:28:04.219Z,2.40
2022-10-02T21:30:41.806Z,2.83
2022-10-02T21:33:15.442Z,2.17
2022-10-02T21:35:56.199Z,2.90
2022-10-02T21:38:52.897Z,2.87
2022-10-02T21:41:59.433Z,2.67
2022-10-02T21:45:04.552Z,3.00
2022-10-02T21:48:07.538Z,3.43
2022-10-02T21:50:58.355Z,3.00
2022-10-02T21:54:11.515Z,2.27
2022-10-02T21:57:21.305Z,3.10
2022-10-02T22:00:13.950Z,2.60
2022-10-02T22:03:25.172Z,2.90
2022-10-02T22:06:39.215Z,3.37
2022-10-02T22:09:26.913Z,2.93
2022-10-02T22:12:07.693Z,3.60
2022-10-02T22:14:39.341Z,2.67
2022-10-02T22:17:18.540Z,2.93
2022-10-02T22:20:08.816Z,3.20
2022-10-02T22:22:52.796Z,3.20
2022-10-02T22:25:36.719Z,2.27
2022-10-02T22:28:17.830Z,2.63
2022-10-02T22:31:12.418Z,2.23
2022-10-02T22:33:54.112Z,2.77
2022-10-02T22:36:52.398Z,2.60
2022-10-02T22:39:29.207Z,2.90
2022-10-02T22:42:01.383Z,2.53
2022-10-02T22:44:36.819Z,2.43
2022-10-02T22:47:09.857Z,2.90
2022-10-02T22:49:41.618Z,3.40
2022-10-02T22:52:12.861Z,2.63
2022-10-02T22:54:46.537Z,3.17
2022-10-02T22:57:25.742Z,3.13
2022-10-02T22:59:59.939Z,2.60
2022-10-02T23:02:33.686Z,2.90
2022-10-02T23:05:10.820Z,2.37
2022-10-02T23:07:46.273Z,2.97
2022-10-02T23:10:22.349Z,3.20
2022-10-02T23:13:02.026Z,2.83
2022-10-02T23:15:39.665Z,3.23
2022-10-02T23:18:19.194Z,2.97
2022-10-02T23:20:54.185Z,4.20
2022-10-02T23:23:28.370Z,3.10
2022-10-02T23:26:04.974Z,2.90
2022-10-02T23:28:38.339Z,3.90
2022-10-02T23:31:16.207Z,3.10
2022-10-02T23:33:51.827Z,3.17
2022-10-02T23:36:25.340Z,2.93
2022-10-02T23:38:59.877Z,3.13
2022-10-02T23:41:47.495Z,3.47
2022-10-02T23:44:25.453Z,3.40
2022-10-02T23:47:20.857Z,3.40
2022-10-02T23:49:51.021Z,2.93
2022-10-02T23:52:37.737Z,4.40
2022-10-02T23:55:37.121Z,2.53
2022-10-02T23:58:29.057Z,2.57
